Aérodrome :
LOGIN :

S'inscrire | Disclaimer

   EN    FR    IT 

 










Légende :    VFR   VFR Marginal   IFR   IFR Intensif   IFR Très Intensif
Visi : 
Plafond : 
>= 8 km
>= 3000ft
5 à 8 km
1000 à 3000 ft
1500m à 5 km
500 à 1000 ft
800 à 1500m
200 à 500 ft
< 800m
< 200 ft
Symboles :   Orages  Brouillard  Fortes neiges  Fortes précipitations  Vent > 20 kt
SIGMETs :   Divers  Orages  Givrage  Turbulence  Onde Orograph.  Cendres Volcan.






- Altitude de l'aérodrome : 3 ft
- Code IATA : DHR


EHKD - Den Helder De Kooy

DERNIER METAR :
  • 091019Z AUTO 04008KT 360V090 9999 SCT170 24/21 Q1019 BLU

METARs EXPIRÉS :
  • 090957Z AUTO 04009KT 010V080 9999 NCD 24/21 Q1019 BLU FCST CANCEL
  • 090925Z AUTO 03008KT 360V070 9999 NCD 24/21 Q1019 BLU NOSIG
  • 090855Z AUTO 03009KT 360V060 9999 OVC220 23/21 Q1019 BLU NOSIG
  • 090825Z AUTO 02011KT 350V060 9999 OVC240 23/20 Q1019 BLU NOSIG
  • 090755Z AUTO 03010KT 360V060 9999 OVC160 23/20 Q1019 BLU NOSIG

TAF TAF EHKD
Valide du 09 à 09h jusqu'au 09 à 21h UTC


090809Z 0909/0921 04010KT CAVOK
TEMPO 0913/0921 06012G22KT



MET'MAP, la Météo Aéronautique d'un coup d'oeil ! - Copyright ORBIFLY Décembre 2007 - Disclaimer

ORBIFLY MET'MAP TEAM :

Programmation & Développement : Alexandra Zaïnal
Sur une idée originale de : Baudouin d'Aumeries
Assistance à la programmation : Marc-Olivier Méhu
Soutien technique & logistique : Manuel Goepfert

Contact : metmap@orbifly.com




SOURCES & CREDITS :

   NOAA